DECKE EDDH-ELLX
Flight info
| Callsign | DECKE |
|---|---|
| Flight time | 1h 56m |
| Altitude | 15000 |
| Route | HABFU1C/05 HABFU Y348 MAWEQ Z718 OSNAD M170 HMM N853 IRBUP Z717 NEREL T855 LNO |
| Aircraft | DA42/L-SBDGRY/S |
Departure
| Time | 2026-05-07 14:00 |
|---|---|
| Airport | Hamburg Helmut Schmidt Airport (EDDH) |
Arrival
| Time | 2026-05-07 15:57 |
|---|---|
| Airport | Luxembourg-Findel International Airport (ELLX) |
| Time | Latitude | Longitude | Altitude | Speed | Heading |
|---|---|---|---|---|---|
| 2026-05-07 13:38 | 53.62735 | 9.98912 | 41 ft | 0 kts | 63° |
| 2026-05-07 13:54 | 53.62739 | 9.98914 | 41 ft | 3 kts | 348° |
| 2026-05-07 13:54 | 53.62750 | 9.98833 | 41 ft | 10 kts | 333° |
| 2026-05-07 13:55 | 53.62794 | 9.98760 | 41 ft | 9 kts | 226° |
| 2026-05-07 13:55 | 53.62737 | 9.98649 | 41 ft | 19 kts | 228° |
| 2026-05-07 13:55 | 53.62668 | 9.98488 | 41 ft | 14 kts | 269° |
| 2026-05-07 13:55 | 53.62707 | 9.98407 | 40 ft | 6 kts | 320° |
| 2026-05-07 13:56 | 53.62714 | 9.98396 | 39 ft | 0 kts | 321° |
| 2026-05-07 13:56 | 53.62715 | 9.98396 | 39 ft | 0 kts | 321° |
| 2026-05-07 13:56 | 53.62714 | 9.98396 | 39 ft | 0 kts | 321° |
| 2026-05-07 13:56 | 53.62715 | 9.98396 | 39 ft | 0 kts | 321° |
| 2026-05-07 13:57 | 53.62785 | 9.98341 | 38 ft | 15 kts | 8° |
| 2026-05-07 13:57 | 53.62826 | 9.98395 | 38 ft | 1 kts | 48° |
| 2026-05-07 13:59 | 53.62913 | 9.98570 | 39 ft | 51 kts | 50° |
| 2026-05-07 13:59 | 53.63250 | 9.99220 | 105 ft | 89 kts | 50° |
| 2026-05-07 14:00 | 53.63714 | 10.00048 | 365 ft | 101 kts | 48° |
| 2026-05-07 14:00 | 53.64209 | 10.00859 | 740 ft | 98 kts | 54° |
| 2026-05-07 14:00 | 53.64580 | 10.01726 | 1258 ft | 89 kts | 54° |
| 2026-05-07 14:00 | 53.64948 | 10.02555 | 1686 ft | 91 kts | 52° |
| 2026-05-07 14:01 | 53.65354 | 10.03434 | 2026 ft | 95 kts | 52° |
| 2026-05-07 14:01 | 53.65769 | 10.04313 | 2386 ft | 100 kts | 52° |
| 2026-05-07 14:01 | 53.66199 | 10.05209 | 2837 ft | 95 kts | 52° |
| 2026-05-07 14:01 | 53.66615 | 10.06068 | 3262 ft | 96 kts | 52° |
| 2026-05-07 14:02 | 53.67039 | 10.06946 | 3654 ft | 96 kts | 53° |
| 2026-05-07 14:02 | 53.67465 | 10.07823 | 4046 ft | 98 kts | 53° |
| 2026-05-07 14:02 | 53.67905 | 10.08722 | 4429 ft | 98 kts | 53° |
| 2026-05-07 14:02 | 53.68344 | 10.09622 | 4793 ft | 103 kts | 53° |
| 2026-05-07 14:03 | 53.68799 | 10.10554 | 5184 ft | 100 kts | 54° |
| 2026-05-07 14:03 | 53.69279 | 10.11414 | 5533 ft | 105 kts | 40° |
| 2026-05-07 14:03 | 53.69934 | 10.11883 | 5931 ft | 105 kts | 16° |
| 2026-05-07 14:03 | 53.70684 | 10.11792 | 6246 ft | 114 kts | 347° |
| 2026-05-07 14:04 | 53.71357 | 10.11036 | 6569 ft | 121 kts | 318° |
| 2026-05-07 14:04 | 53.71798 | 10.09789 | 6885 ft | 125 kts | 304° |
| 2026-05-07 14:04 | 53.72187 | 10.08482 | 7221 ft | 123 kts | 300° |
| 2026-05-07 14:04 | 53.72571 | 10.07200 | 7538 ft | 123 kts | 300° |
| 2026-05-07 14:05 | 53.72961 | 10.05902 | 7857 ft | 125 kts | 301° |
| 2026-05-07 14:05 | 53.73347 | 10.04613 | 8232 ft | 123 kts | 300° |
| 2026-05-07 14:05 | 53.73733 | 10.03324 | 8580 ft | 123 kts | 299° |
| 2026-05-07 14:05 | 53.74121 | 10.02034 | 8940 ft | 123 kts | 299° |
| 2026-05-07 14:06 | 53.74509 | 10.00743 | 9289 ft | 123 kts | 298° |
| 2026-05-07 14:06 | 53.74897 | 9.99449 | 9628 ft | 124 kts | 298° |
| 2026-05-07 14:06 | 53.75216 | 9.98098 | 9958 ft | 125 kts | 279° |
| 2026-05-07 14:06 | 53.75096 | 9.96667 | 10279 ft | 124 kts | 249° |
| 2026-05-07 14:07 | 53.74762 | 9.95310 | 10579 ft | 126 kts | 248° |
| 2026-05-07 14:07 | 53.74417 | 9.93955 | 10900 ft | 125 kts | 247° |
| 2026-05-07 14:07 | 53.74072 | 9.92600 | 11216 ft | 126 kts | 247° |
| 2026-05-07 14:07 | 53.73727 | 9.91237 | 11534 ft | 126 kts | 248° |
| 2026-05-07 14:08 | 53.73386 | 9.89892 | 11849 ft | 126 kts | 248° |
| 2026-05-07 14:08 | 53.73040 | 9.88522 | 12174 ft | 127 kts | 248° |
| 2026-05-07 14:08 | 53.72693 | 9.87150 | 12502 ft | 127 kts | 248° |
| 2026-05-07 14:08 | 53.72344 | 9.85774 | 12832 ft | 127 kts | 248° |
| 2026-05-07 14:09 | 53.71997 | 9.84400 | 13160 ft | 128 kts | 248° |
| 2026-05-07 14:09 | 53.71647 | 9.83019 | 13482 ft | 128 kts | 248° |
| 2026-05-07 14:09 | 53.71294 | 9.81628 | 13811 ft | 129 kts | 248° |
| 2026-05-07 14:09 | 53.70943 | 9.80241 | 14133 ft | 128 kts | 248° |
| 2026-05-07 14:10 | 53.70592 | 9.78860 | 14425 ft | 128 kts | 248° |
| 2026-05-07 14:10 | 53.70240 | 9.77472 | 14732 ft | 128 kts | 248° |
| 2026-05-07 14:10 | 53.69892 | 9.76100 | 15014 ft | 130 kts | 248° |
| 2026-05-07 14:10 | 53.69515 | 9.74612 | 15081 ft | 148 kts | 248° |
| 2026-05-07 14:11 | 53.69086 | 9.72916 | 15083 ft | 164 kts | 248° |
| 2026-05-07 14:11 | 53.68620 | 9.71082 | 15080 ft | 175 kts | 248° |
| 2026-05-07 14:11 | 53.68130 | 9.69166 | 15080 ft | 181 kts | 248° |
| 2026-05-07 14:11 | 53.67626 | 9.67199 | 15081 ft | 185 kts | 248° |
| 2026-05-07 14:12 | 53.67114 | 9.65197 | 15082 ft | 187 kts | 247° |
| 2026-05-07 14:12 | 53.66595 | 9.63168 | 15083 ft | 189 kts | 248° |
| 2026-05-07 14:12 | 53.66080 | 9.61151 | 15082 ft | 190 kts | 247° |
| 2026-05-07 14:12 | 53.65517 | 9.59127 | 15076 ft | 191 kts | 239° |
| 2026-05-07 14:13 | 53.64627 | 9.57459 | 15074 ft | 193 kts | 218° |
| 2026-05-07 14:13 | 53.63469 | 9.56289 | 15077 ft | 194 kts | 210° |
| 2026-05-07 14:13 | 53.62280 | 9.55200 | 15077 ft | 194 kts | 210° |
| 2026-05-07 14:13 | 53.61093 | 9.54119 | 15074 ft | 194 kts | 209° |
| 2026-05-07 14:14 | 53.59906 | 9.53033 | 15075 ft | 194 kts | 210° |
| 2026-05-07 14:14 | 53.58719 | 9.51946 | 15074 ft | 194 kts | 210° |
| 2026-05-07 14:14 | 53.57532 | 9.50858 | 15074 ft | 194 kts | 210° |
| 2026-05-07 14:14 | 53.56344 | 9.49773 | 15074 ft | 194 kts | 210° |
| 2026-05-07 14:15 | 53.55156 | 9.48685 | 15074 ft | 194 kts | 210° |
| 2026-05-07 14:15 | 53.53967 | 9.47599 | 15073 ft | 194 kts | 209° |
| 2026-05-07 14:15 | 53.52780 | 9.46514 | 15074 ft | 194 kts | 209° |
| 2026-05-07 14:15 | 53.51593 | 9.45430 | 15073 ft | 194 kts | 210° |
| 2026-05-07 14:16 | 53.50414 | 9.44354 | 15072 ft | 195 kts | 209° |
| 2026-05-07 14:16 | 53.49221 | 9.43267 | 15071 ft | 195 kts | 210° |
| 2026-05-07 14:16 | 53.48033 | 9.42186 | 15072 ft | 194 kts | 210° |
| 2026-05-07 14:16 | 53.46842 | 9.41099 | 15071 ft | 195 kts | 209° |
| 2026-05-07 14:17 | 53.45652 | 9.40017 | 15074 ft | 195 kts | 210° |
| 2026-05-07 14:17 | 53.44461 | 9.38934 | 15074 ft | 194 kts | 210° |
| 2026-05-07 14:17 | 53.43272 | 9.37853 | 15070 ft | 194 kts | 210° |
| 2026-05-07 14:17 | 53.42084 | 9.36773 | 15070 ft | 194 kts | 210° |
| 2026-05-07 14:18 | 53.40894 | 9.35693 | 15068 ft | 194 kts | 209° |
| 2026-05-07 14:18 | 53.39704 | 9.34614 | 15068 ft | 194 kts | 210° |
| 2026-05-07 14:18 | 53.38528 | 9.33547 | 15068 ft | 194 kts | 209° |
| 2026-05-07 14:18 | 53.37337 | 9.32469 | 15071 ft | 195 kts | 209° |
| 2026-05-07 14:19 | 53.36144 | 9.31389 | 15067 ft | 195 kts | 210° |
| 2026-05-07 14:19 | 53.34951 | 9.30309 | 15067 ft | 195 kts | 210° |
| 2026-05-07 14:19 | 53.33760 | 9.29232 | 15067 ft | 195 kts | 209° |
| 2026-05-07 14:19 | 53.32552 | 9.28180 | 15065 ft | 196 kts | 204° |
| 2026-05-07 14:20 | 53.31227 | 9.27620 | 15068 ft | 197 kts | 192° |
| 2026-05-07 14:20 | 53.29879 | 9.27217 | 15068 ft | 197 kts | 191° |
| 2026-05-07 14:20 | 53.28530 | 9.26824 | 15068 ft | 197 kts | 191° |
| 2026-05-07 14:20 | 53.27180 | 9.26424 | 15067 ft | 197 kts | 192° |
| 2026-05-07 14:21 | 53.25845 | 9.26025 | 15068 ft | 197 kts | 191° |
| 2026-05-07 14:21 | 53.24497 | 9.25624 | 15068 ft | 196 kts | 191° |
| 2026-05-07 14:21 | 53.23151 | 9.25223 | 15069 ft | 196 kts | 191° |
| 2026-05-07 14:21 | 53.21805 | 9.24822 | 15069 ft | 197 kts | 191° |
| 2026-05-07 14:22 | 53.20458 | 9.24421 | 15070 ft | 197 kts | 191° |
| 2026-05-07 14:22 | 53.19110 | 9.24019 | 15070 ft | 197 kts | 191° |
| 2026-05-07 14:22 | 53.17762 | 9.23619 | 15070 ft | 196 kts | 191° |
| 2026-05-07 14:22 | 53.16433 | 9.23225 | 15071 ft | 196 kts | 191° |
| 2026-05-07 14:23 | 53.15085 | 9.22825 | 15071 ft | 196 kts | 191° |
| 2026-05-07 14:23 | 53.13739 | 9.22425 | 15071 ft | 197 kts | 191° |
| 2026-05-07 14:23 | 53.12395 | 9.22027 | 15072 ft | 197 kts | 191° |
| 2026-05-07 14:23 | 53.11045 | 9.21626 | 15071 ft | 197 kts | 191° |
| 2026-05-07 14:24 | 53.09700 | 9.21228 | 15071 ft | 197 kts | 191° |
| 2026-05-07 14:24 | 53.08351 | 9.20830 | 15073 ft | 197 kts | 192° |
| 2026-05-07 14:24 | 53.07005 | 9.20431 | 15073 ft | 196 kts | 191° |
| 2026-05-07 14:24 | 53.05656 | 9.20032 | 15073 ft | 196 kts | 191° |
| 2026-05-07 14:25 | 53.04312 | 9.19636 | 15073 ft | 196 kts | 191° |
| 2026-05-07 14:25 | 53.02964 | 9.19238 | 15073 ft | 196 kts | 191° |
| 2026-05-07 14:25 | 53.01619 | 9.18841 | 15073 ft | 196 kts | 191° |
| 2026-05-07 14:25 | 53.00273 | 9.18446 | 15072 ft | 196 kts | 191° |
| 2026-05-07 14:26 | 52.98945 | 9.18054 | 15072 ft | 196 kts | 191° |
| 2026-05-07 14:26 | 52.97600 | 9.17657 | 15072 ft | 196 kts | 191° |
| 2026-05-07 14:26 | 52.96251 | 9.17260 | 15072 ft | 196 kts | 191° |
| 2026-05-07 14:26 | 52.94927 | 9.16735 | 15068 ft | 196 kts | 203° |
| 2026-05-07 14:27 | 52.93712 | 9.15727 | 15075 ft | 195 kts | 208° |
| 2026-05-07 14:27 | 52.92514 | 9.14668 | 15075 ft | 195 kts | 210° |
| 2026-05-07 14:27 | 52.91316 | 9.13608 | 15074 ft | 195 kts | 209° |
| 2026-05-07 14:27 | 52.90119 | 9.12555 | 15070 ft | 194 kts | 209° |
| 2026-05-07 14:28 | 52.88924 | 9.11506 | 15073 ft | 194 kts | 210° |
| 2026-05-07 14:28 | 52.87728 | 9.10457 | 15073 ft | 194 kts | 210° |
| 2026-05-07 14:28 | 52.86536 | 9.09412 | 15072 ft | 194 kts | 209° |
| 2026-05-07 14:28 | 52.85347 | 9.08371 | 15073 ft | 194 kts | 209° |
| 2026-05-07 14:29 | 52.84153 | 9.07328 | 15074 ft | 195 kts | 209° |
| 2026-05-07 14:29 | 52.82943 | 9.06271 | 15075 ft | 198 kts | 208° |
| 2026-05-07 14:29 | 52.81723 | 9.05199 | 15072 ft | 199 kts | 209° |
| 2026-05-07 14:29 | 52.80514 | 9.04142 | 15071 ft | 198 kts | 209° |
| 2026-05-07 14:30 | 52.79297 | 9.03082 | 15072 ft | 197 kts | 209° |
| 2026-05-07 14:30 | 52.78088 | 9.02030 | 15071 ft | 195 kts | 209° |
| 2026-05-07 14:30 | 52.76893 | 9.00986 | 15071 ft | 194 kts | 209° |
| 2026-05-07 14:30 | 52.75696 | 8.99944 | 15071 ft | 193 kts | 209° |
| 2026-05-07 14:31 | 52.74510 | 8.98910 | 15072 ft | 193 kts | 210° |
| 2026-05-07 14:31 | 52.73323 | 8.97876 | 15073 ft | 192 kts | 210° |
| 2026-05-07 14:31 | 52.72142 | 8.96848 | 15073 ft | 192 kts | 209° |
| 2026-05-07 14:31 | 52.70954 | 8.95818 | 15075 ft | 193 kts | 209° |
| 2026-05-07 14:32 | 52.69770 | 8.94789 | 15070 ft | 193 kts | 209° |
| 2026-05-07 14:32 | 52.68597 | 8.93770 | 15070 ft | 193 kts | 208° |
| 2026-05-07 14:32 | 52.67411 | 8.92739 | 15070 ft | 193 kts | 208° |
| 2026-05-07 14:32 | 52.66219 | 8.91703 | 15067 ft | 194 kts | 210° |
| 2026-05-07 14:33 | 52.65028 | 8.90669 | 15070 ft | 194 kts | 210° |
| 2026-05-07 14:33 | 52.63834 | 8.89633 | 15071 ft | 194 kts | 209° |
| 2026-05-07 14:33 | 52.62643 | 8.88600 | 15070 ft | 194 kts | 209° |
| 2026-05-07 14:33 | 52.61449 | 8.87569 | 15072 ft | 193 kts | 210° |
| 2026-05-07 14:34 | 52.60259 | 8.86537 | 15072 ft | 193 kts | 210° |
| 2026-05-07 14:34 | 52.59072 | 8.85509 | 15072 ft | 193 kts | 210° |
| 2026-05-07 14:34 | 52.57883 | 8.84480 | 15072 ft | 193 kts | 209° |
| 2026-05-07 14:34 | 52.56713 | 8.83471 | 15072 ft | 193 kts | 209° |
| 2026-05-07 14:35 | 52.55525 | 8.82445 | 15073 ft | 193 kts | 209° |
| 2026-05-07 14:35 | 52.54334 | 8.81417 | 15073 ft | 193 kts | 209° |
| 2026-05-07 14:35 | 52.53157 | 8.80401 | 15075 ft | 194 kts | 209° |
| 2026-05-07 14:35 | 52.51960 | 8.79370 | 15075 ft | 194 kts | 209° |
| 2026-05-07 14:36 | 52.50767 | 8.78343 | 15077 ft | 194 kts | 210° |
| 2026-05-07 14:36 | 52.49573 | 8.77312 | 15077 ft | 194 kts | 209° |
| 2026-05-07 14:36 | 52.48380 | 8.76286 | 15077 ft | 194 kts | 209° |
| 2026-05-07 14:36 | 52.47185 | 8.75260 | 15077 ft | 193 kts | 210° |
| 2026-05-07 14:37 | 52.45992 | 8.74234 | 15077 ft | 193 kts | 210° |
| 2026-05-07 14:37 | 52.43607 | 8.72185 | 15075 ft | 194 kts | 210° |
| 2026-05-07 14:37 | 52.42412 | 8.71161 | 15075 ft | 194 kts | 210° |
| 2026-05-07 14:38 | 52.41218 | 8.70135 | 15076 ft | 194 kts | 209° |
| 2026-05-07 14:38 | 52.40022 | 8.69111 | 15076 ft | 194 kts | 209° |
| 2026-05-07 14:38 | 52.38825 | 8.68088 | 15076 ft | 194 kts | 209° |
| 2026-05-07 14:38 | 52.37644 | 8.67086 | 15074 ft | 191 kts | 209° |
| 2026-05-07 14:39 | 52.36462 | 8.66074 | 15075 ft | 192 kts | 210° |
| 2026-05-07 14:39 | 52.35281 | 8.65049 | 15074 ft | 193 kts | 209° |
| 2026-05-07 14:39 | 52.34090 | 8.64034 | 15073 ft | 193 kts | 209° |
| 2026-05-07 14:39 | 52.32897 | 8.63020 | 15072 ft | 193 kts | 210° |
| 2026-05-07 14:40 | 52.31711 | 8.62008 | 15075 ft | 192 kts | 210° |
| 2026-05-07 14:40 | 52.30523 | 8.60993 | 15075 ft | 192 kts | 210° |
| 2026-05-07 14:40 | 52.29334 | 8.59981 | 15075 ft | 193 kts | 209° |
| 2026-05-07 14:40 | 52.28161 | 8.58928 | 15074 ft | 192 kts | 216° |
| 2026-05-07 14:41 | 52.27228 | 8.57407 | 15077 ft | 190 kts | 236° |
| 2026-05-07 14:41 | 52.26814 | 8.56155 | 15078 ft | 189 kts | 248° |
| 2026-05-07 14:41 | 52.26318 | 8.54164 | 15081 ft | 189 kts | 249° |
| 2026-05-07 14:41 | 52.25858 | 8.52276 | 15075 ft | 167 kts | 249° |
| 2026-05-07 14:42 | 52.25444 | 8.50585 | 15070 ft | 155 kts | 250° |
| 2026-05-07 14:42 | 52.25053 | 8.48989 | 15070 ft | 149 kts | 250° |
| 2026-05-07 14:42 | 52.24672 | 8.47434 | 15070 ft | 146 kts | 249° |
| 2026-05-07 14:42 | 52.24289 | 8.45875 | 15088 ft | 153 kts | 250° |
| 2026-05-07 14:43 | 52.23879 | 8.44198 | 15087 ft | 164 kts | 250° |
| 2026-05-07 14:43 | 52.23467 | 8.42521 | 15087 ft | 163 kts | 249° |
| 2026-05-07 14:43 | 52.23032 | 8.40759 | 15090 ft | 172 kts | 249° |
| 2026-05-07 14:43 | 52.22580 | 8.38925 | 15086 ft | 176 kts | 249° |
| 2026-05-07 14:44 | 52.22115 | 8.37046 | 15087 ft | 180 kts | 249° |
| 2026-05-07 14:44 | 52.21640 | 8.35127 | 15088 ft | 183 kts | 250° |
| 2026-05-07 14:44 | 52.21163 | 8.33192 | 15089 ft | 184 kts | 249° |
| 2026-05-07 14:44 | 52.20680 | 8.31248 | 15085 ft | 186 kts | 249° |
| 2026-05-07 14:45 | 52.20190 | 8.29298 | 15080 ft | 187 kts | 246° |
| 2026-05-07 14:45 | 52.19476 | 8.27646 | 15088 ft | 174 kts | 228° |
| 2026-05-07 14:45 | 52.18629 | 8.26190 | 15083 ft | 180 kts | 228° |
| 2026-05-07 14:45 | 52.17763 | 8.24723 | 15081 ft | 183 kts | 228° |
| 2026-05-07 14:46 | 52.16865 | 8.23202 | 15083 ft | 185 kts | 227° |
| 2026-05-07 14:46 | 52.15981 | 8.21708 | 15084 ft | 185 kts | 229° |
| 2026-05-07 14:46 | 52.15085 | 8.20187 | 15084 ft | 185 kts | 229° |
| 2026-05-07 14:46 | 52.14191 | 8.18670 | 15084 ft | 186 kts | 228° |
| 2026-05-07 14:47 | 52.13292 | 8.17148 | 15085 ft | 187 kts | 227° |
| 2026-05-07 14:47 | 52.12385 | 8.15617 | 15084 ft | 188 kts | 228° |
| 2026-05-07 14:47 | 52.11479 | 8.14083 | 15085 ft | 188 kts | 227° |
| 2026-05-07 14:47 | 52.10582 | 8.12564 | 15083 ft | 188 kts | 227° |
| 2026-05-07 14:48 | 52.09672 | 8.11029 | 15083 ft | 189 kts | 227° |
| 2026-05-07 14:48 | 52.08761 | 8.09509 | 15083 ft | 186 kts | 228° |
| 2026-05-07 14:48 | 52.07867 | 8.07984 | 15083 ft | 186 kts | 226° |
| 2026-05-07 14:48 | 52.06975 | 8.06482 | 15084 ft | 185 kts | 229° |
| 2026-05-07 14:49 | 52.06080 | 8.04963 | 15082 ft | 186 kts | 228° |
| 2026-05-07 14:49 | 52.05182 | 8.03450 | 15081 ft | 187 kts | 228° |
| 2026-05-07 14:49 | 52.04275 | 8.01927 | 15081 ft | 187 kts | 227° |
| 2026-05-07 14:49 | 52.03367 | 8.00404 | 15082 ft | 188 kts | 227° |
| 2026-05-07 14:50 | 52.02457 | 7.98876 | 15083 ft | 189 kts | 228° |
| 2026-05-07 14:50 | 52.01546 | 7.97343 | 15084 ft | 189 kts | 227° |
| 2026-05-07 14:50 | 52.00637 | 7.95816 | 15082 ft | 190 kts | 227° |
| 2026-05-07 14:50 | 51.99703 | 7.94248 | 15083 ft | 191 kts | 227° |
| 2026-05-07 14:51 | 51.98790 | 7.92717 | 15080 ft | 191 kts | 228° |
| 2026-05-07 14:51 | 51.97871 | 7.91174 | 15082 ft | 191 kts | 228° |
| 2026-05-07 14:51 | 51.96945 | 7.89625 | 15082 ft | 191 kts | 228° |
| 2026-05-07 14:51 | 51.96024 | 7.88081 | 15081 ft | 191 kts | 228° |
| 2026-05-07 14:52 | 51.95101 | 7.86533 | 15083 ft | 191 kts | 228° |
| 2026-05-07 14:52 | 51.94176 | 7.84984 | 15083 ft | 191 kts | 227° |
| 2026-05-07 14:52 | 51.93251 | 7.83442 | 15082 ft | 191 kts | 228° |
| 2026-05-07 14:52 | 51.92329 | 7.81902 | 15076 ft | 190 kts | 227° |
| 2026-05-07 14:53 | 51.91408 | 7.80361 | 15073 ft | 190 kts | 227° |
| 2026-05-07 14:53 | 51.90487 | 7.78825 | 15074 ft | 190 kts | 227° |
| 2026-05-07 14:53 | 51.89566 | 7.77292 | 15073 ft | 189 kts | 227° |
| 2026-05-07 14:53 | 51.88649 | 7.75762 | 15074 ft | 189 kts | 227° |
| 2026-05-07 14:54 | 51.87733 | 7.74236 | 15079 ft | 189 kts | 227° |
| 2026-05-07 14:54 | 51.86814 | 7.72709 | 15079 ft | 189 kts | 228° |
| 2026-05-07 14:54 | 51.85889 | 7.71208 | 15078 ft | 189 kts | 223° |
| 2026-05-07 14:54 | 51.84791 | 7.70086 | 15077 ft | 190 kts | 210° |
| 2026-05-07 14:55 | 51.83608 | 7.69106 | 15074 ft | 191 kts | 209° |
| 2026-05-07 14:55 | 51.82422 | 7.68138 | 15074 ft | 191 kts | 209° |
| 2026-05-07 14:55 | 51.81241 | 7.67164 | 15076 ft | 191 kts | 208° |
| 2026-05-07 14:55 | 51.80055 | 7.66189 | 15076 ft | 191 kts | 209° |
| 2026-05-07 14:56 | 51.78870 | 7.65214 | 15068 ft | 191 kts | 209° |
| 2026-05-07 14:56 | 51.77680 | 7.64235 | 15068 ft | 192 kts | 209° |
| 2026-05-07 14:56 | 51.76493 | 7.63262 | 15069 ft | 191 kts | 210° |
| 2026-05-07 14:56 | 51.75307 | 7.62285 | 15069 ft | 191 kts | 208° |
| 2026-05-07 14:57 | 51.74120 | 7.61312 | 15071 ft | 191 kts | 209° |
| 2026-05-07 14:57 | 51.72934 | 7.60339 | 15072 ft | 191 kts | 210° |
| 2026-05-07 14:57 | 51.71751 | 7.59368 | 15073 ft | 191 kts | 210° |
| 2026-05-07 14:57 | 51.70537 | 7.58503 | 15068 ft | 192 kts | 200° |
| 2026-05-07 14:58 | 51.69260 | 7.57850 | 15070 ft | 192 kts | 199° |
| 2026-05-07 14:58 | 51.67980 | 7.57213 | 15071 ft | 192 kts | 200° |
| 2026-05-07 14:58 | 51.66705 | 7.56573 | 15071 ft | 192 kts | 200° |
| 2026-05-07 14:58 | 51.65443 | 7.55936 | 15071 ft | 192 kts | 199° |
| 2026-05-07 14:59 | 51.64164 | 7.55294 | 15072 ft | 193 kts | 199° |
| 2026-05-07 14:59 | 51.62882 | 7.54651 | 15072 ft | 193 kts | 200° |
| 2026-05-07 14:59 | 51.61602 | 7.54007 | 15072 ft | 193 kts | 199° |
| 2026-05-07 14:59 | 51.60323 | 7.53366 | 15073 ft | 192 kts | 200° |
| 2026-05-07 15:00 | 51.59044 | 7.52721 | 15071 ft | 193 kts | 200° |
| 2026-05-07 15:00 | 51.57764 | 7.52081 | 15071 ft | 193 kts | 200° |
| 2026-05-07 15:00 | 51.56484 | 7.51439 | 15068 ft | 192 kts | 200° |
| 2026-05-07 15:00 | 51.55218 | 7.50805 | 15067 ft | 192 kts | 200° |
| 2026-05-07 15:01 | 51.53940 | 7.50166 | 15071 ft | 192 kts | 200° |
| 2026-05-07 15:01 | 51.52662 | 7.49525 | 15055 ft | 192 kts | 199° |
| 2026-05-07 15:01 | 51.51381 | 7.48885 | 15055 ft | 193 kts | 199° |
| 2026-05-07 15:01 | 51.50117 | 7.48200 | 15050 ft | 191 kts | 207° |
| 2026-05-07 15:02 | 51.49030 | 7.47010 | 15051 ft | 189 kts | 226° |
| 2026-05-07 15:02 | 51.48259 | 7.45324 | 15055 ft | 188 kts | 242° |
| 2026-05-07 15:02 | 51.47636 | 7.43474 | 15057 ft | 189 kts | 243° |
| 2026-05-07 15:02 | 51.47019 | 7.41612 | 15057 ft | 188 kts | 243° |
| 2026-05-07 15:03 | 51.46406 | 7.39759 | 15057 ft | 188 kts | 243° |
| 2026-05-07 15:03 | 51.45789 | 7.37904 | 15056 ft | 188 kts | 243° |
| 2026-05-07 15:03 | 51.45172 | 7.36058 | 15057 ft | 188 kts | 243° |
| 2026-05-07 15:03 | 51.44557 | 7.34212 | 15056 ft | 187 kts | 243° |
| 2026-05-07 15:04 | 51.43948 | 7.32390 | 15056 ft | 187 kts | 243° |
| 2026-05-07 15:04 | 51.43325 | 7.30525 | 15056 ft | 188 kts | 243° |
| 2026-05-07 15:04 | 51.42708 | 7.28681 | 15050 ft | 188 kts | 243° |
| 2026-05-07 15:04 | 51.41986 | 7.26938 | 15050 ft | 188 kts | 235° |
| 2026-05-07 15:05 | 51.41211 | 7.25271 | 15047 ft | 189 kts | 235° |
| 2026-05-07 15:05 | 51.40424 | 7.23585 | 15047 ft | 189 kts | 234° |
| 2026-05-07 15:05 | 51.39642 | 7.21907 | 15047 ft | 189 kts | 235° |
| 2026-05-07 15:05 | 51.38855 | 7.20213 | 15048 ft | 189 kts | 235° |
| 2026-05-07 15:06 | 51.38070 | 7.18525 | 15049 ft | 189 kts | 234° |
| 2026-05-07 15:06 | 51.37284 | 7.16839 | 15051 ft | 188 kts | 234° |
| 2026-05-07 15:06 | 51.36501 | 7.15160 | 15051 ft | 188 kts | 234° |
| 2026-05-07 15:06 | 51.35721 | 7.13486 | 15050 ft | 188 kts | 234° |
| 2026-05-07 15:07 | 51.34935 | 7.11803 | 15046 ft | 189 kts | 234° |
| 2026-05-07 15:07 | 51.34151 | 7.10123 | 15048 ft | 188 kts | 234° |
| 2026-05-07 15:07 | 51.33366 | 7.08442 | 15047 ft | 189 kts | 234° |
| 2026-05-07 15:07 | 51.32580 | 7.06763 | 15044 ft | 189 kts | 234° |
| 2026-05-07 15:08 | 51.31802 | 7.05100 | 15044 ft | 189 kts | 234° |
| 2026-05-07 15:08 | 51.31006 | 7.03399 | 15046 ft | 189 kts | 234° |
| 2026-05-07 15:08 | 51.30219 | 7.01718 | 15043 ft | 189 kts | 234° |
| 2026-05-07 15:08 | 51.29443 | 7.00061 | 15045 ft | 189 kts | 234° |
| 2026-05-07 15:09 | 51.28654 | 6.98381 | 15044 ft | 189 kts | 234° |
| 2026-05-07 15:09 | 51.27865 | 6.96701 | 15044 ft | 189 kts | 234° |
| 2026-05-07 15:09 | 51.27074 | 6.95018 | 15044 ft | 189 kts | 234° |
| 2026-05-07 15:09 | 51.26283 | 6.93333 | 15044 ft | 189 kts | 234° |
| 2026-05-07 15:10 | 51.25494 | 6.91655 | 15041 ft | 188 kts | 234° |
| 2026-05-07 15:10 | 51.24706 | 6.89981 | 15041 ft | 189 kts | 234° |
| 2026-05-07 15:10 | 51.23917 | 6.88306 | 15042 ft | 189 kts | 234° |
| 2026-05-07 15:10 | 51.23128 | 6.86632 | 15042 ft | 189 kts | 234° |
| 2026-05-07 15:11 | 51.22339 | 6.84957 | 15045 ft | 189 kts | 234° |
| 2026-05-07 15:11 | 51.21560 | 6.83307 | 15045 ft | 189 kts | 234° |
| 2026-05-07 15:11 | 51.20759 | 6.81612 | 15044 ft | 189 kts | 234° |
| 2026-05-07 15:11 | 51.19980 | 6.79963 | 15045 ft | 188 kts | 234° |
| 2026-05-07 15:12 | 51.19191 | 6.78293 | 15044 ft | 188 kts | 234° |
| 2026-05-07 15:12 | 51.18403 | 6.76628 | 15045 ft | 188 kts | 234° |
| 2026-05-07 15:12 | 51.17613 | 6.74959 | 15045 ft | 189 kts | 234° |
| 2026-05-07 15:12 | 51.16824 | 6.73291 | 15043 ft | 188 kts | 234° |
| 2026-05-07 15:13 | 51.16033 | 6.71625 | 15043 ft | 188 kts | 234° |
| 2026-05-07 15:13 | 51.15243 | 6.69958 | 15043 ft | 188 kts | 234° |
| 2026-05-07 15:13 | 51.14454 | 6.68294 | 15043 ft | 188 kts | 234° |
| 2026-05-07 15:13 | 51.13665 | 6.66632 | 15043 ft | 188 kts | 234° |
| 2026-05-07 15:14 | 51.12873 | 6.64968 | 15043 ft | 188 kts | 234° |
| 2026-05-07 15:14 | 51.12083 | 6.63306 | 15042 ft | 188 kts | 234° |
| 2026-05-07 15:14 | 51.11293 | 6.61646 | 15043 ft | 188 kts | 234° |
| 2026-05-07 15:14 | 51.10502 | 6.59985 | 15042 ft | 188 kts | 234° |
| 2026-05-07 15:15 | 51.09711 | 6.58323 | 15045 ft | 188 kts | 234° |
| 2026-05-07 15:15 | 51.08917 | 6.56660 | 15043 ft | 189 kts | 233° |
| 2026-05-07 15:15 | 51.08017 | 6.55133 | 15044 ft | 189 kts | 226° |
| 2026-05-07 15:15 | 51.07082 | 6.53654 | 15043 ft | 189 kts | 226° |
| 2026-05-07 15:16 | 51.06145 | 6.52177 | 15043 ft | 190 kts | 226° |
| 2026-05-07 15:16 | 51.05221 | 6.50715 | 15043 ft | 189 kts | 226° |
| 2026-05-07 15:16 | 51.04289 | 6.49241 | 15043 ft | 189 kts | 226° |
| 2026-05-07 15:16 | 51.03355 | 6.47764 | 15044 ft | 189 kts | 226° |
| 2026-05-07 15:17 | 51.02422 | 6.46288 | 15046 ft | 189 kts | 226° |
| 2026-05-07 15:17 | 51.01488 | 6.44814 | 15046 ft | 189 kts | 226° |
| 2026-05-07 15:17 | 51.00556 | 6.43342 | 15046 ft | 189 kts | 226° |
| 2026-05-07 15:17 | 50.99624 | 6.41871 | 15046 ft | 189 kts | 226° |
| 2026-05-07 15:18 | 50.98688 | 6.40396 | 15046 ft | 189 kts | 226° |
| 2026-05-07 15:18 | 50.97753 | 6.38922 | 15045 ft | 189 kts | 226° |
| 2026-05-07 15:18 | 50.96821 | 6.37454 | 15044 ft | 189 kts | 226° |
| 2026-05-07 15:18 | 50.95898 | 6.36002 | 15045 ft | 189 kts | 226° |
| 2026-05-07 15:19 | 50.94966 | 6.34536 | 15042 ft | 189 kts | 226° |
| 2026-05-07 15:19 | 50.94031 | 6.33066 | 15042 ft | 189 kts | 226° |
| 2026-05-07 15:19 | 50.93098 | 6.31600 | 15043 ft | 189 kts | 226° |
| 2026-05-07 15:19 | 50.92163 | 6.30132 | 15043 ft | 189 kts | 226° |
| 2026-05-07 15:20 | 50.91229 | 6.28665 | 15045 ft | 189 kts | 226° |
| 2026-05-07 15:20 | 50.90294 | 6.27199 | 15045 ft | 189 kts | 226° |
| 2026-05-07 15:20 | 50.89360 | 6.25735 | 15045 ft | 189 kts | 226° |
| 2026-05-07 15:20 | 50.88426 | 6.24272 | 15045 ft | 189 kts | 226° |
| 2026-05-07 15:21 | 50.87490 | 6.22807 | 15043 ft | 189 kts | 226° |
| 2026-05-07 15:21 | 50.86557 | 6.21346 | 15043 ft | 189 kts | 226° |
| 2026-05-07 15:21 | 50.85635 | 6.19905 | 15043 ft | 189 kts | 226° |
| 2026-05-07 15:21 | 50.84698 | 6.18441 | 15044 ft | 189 kts | 226° |
| 2026-05-07 15:22 | 50.83761 | 6.16978 | 15046 ft | 189 kts | 226° |
| 2026-05-07 15:22 | 50.82827 | 6.15519 | 15046 ft | 189 kts | 226° |
| 2026-05-07 15:22 | 50.81890 | 6.14057 | 15045 ft | 189 kts | 226° |
| 2026-05-07 15:22 | 50.80954 | 6.12598 | 15046 ft | 189 kts | 226° |
| 2026-05-07 15:23 | 50.80017 | 6.11138 | 15046 ft | 189 kts | 226° |
| 2026-05-07 15:23 | 50.79079 | 6.09677 | 15046 ft | 189 kts | 226° |
| 2026-05-07 15:23 | 50.78153 | 6.08236 | 15045 ft | 189 kts | 226° |
| 2026-05-07 15:23 | 50.77219 | 6.06782 | 15045 ft | 189 kts | 226° |
| 2026-05-07 15:24 | 50.76284 | 6.05330 | 15045 ft | 188 kts | 226° |
| 2026-05-07 15:24 | 50.75349 | 6.03878 | 15046 ft | 189 kts | 226° |
| 2026-05-07 15:24 | 50.74465 | 6.02348 | 15045 ft | 188 kts | 230° |
| 2026-05-07 15:24 | 50.73608 | 6.00778 | 15046 ft | 189 kts | 230° |
| 2026-05-07 15:25 | 50.72749 | 5.99205 | 15046 ft | 189 kts | 230° |
| 2026-05-07 15:25 | 50.71888 | 5.97627 | 15040 ft | 189 kts | 230° |
| 2026-05-07 15:25 | 50.71027 | 5.96048 | 15040 ft | 190 kts | 230° |
| 2026-05-07 15:25 | 50.70176 | 5.94490 | 15039 ft | 190 kts | 230° |
| 2026-05-07 15:26 | 50.69597 | 5.93429 | 15040 ft | 189 kts | 230° |
| 2026-05-07 15:26 | 50.68735 | 5.91852 | 15040 ft | 189 kts | 230° |
| 2026-05-07 15:26 | 50.67599 | 5.89777 | 15040 ft | 189 kts | 230° |
| 2026-05-07 15:26 | 50.67018 | 5.88714 | 15040 ft | 188 kts | 230° |
| 2026-05-07 15:27 | 50.66163 | 5.87154 | 15042 ft | 188 kts | 230° |
| 2026-05-07 15:27 | 50.65305 | 5.85590 | 15041 ft | 188 kts | 230° |
| 2026-05-07 15:27 | 50.64502 | 5.83966 | 15041 ft | 188 kts | 235° |
| 2026-05-07 15:27 | 50.63748 | 5.82319 | 15043 ft | 188 kts | 235° |
| 2026-05-07 15:28 | 50.62986 | 5.80651 | 15039 ft | 188 kts | 235° |
| 2026-05-07 15:28 | 50.62220 | 5.78976 | 15038 ft | 188 kts | 235° |
| 2026-05-07 15:28 | 50.61455 | 5.77301 | 15049 ft | 188 kts | 235° |
| 2026-05-07 15:28 | 50.60691 | 5.75631 | 15049 ft | 188 kts | 235° |
| 2026-05-07 15:29 | 50.59886 | 5.74007 | 15049 ft | 189 kts | 226° |
| 2026-05-07 15:29 | 50.58814 | 5.72818 | 15048 ft | 190 kts | 207° |
| 2026-05-07 15:29 | 50.57530 | 5.72271 | 15048 ft | 193 kts | 187° |
| 2026-05-07 15:29 | 50.56190 | 5.72461 | 15048 ft | 196 kts | 167° |
| 2026-05-07 15:30 | 50.54920 | 5.73165 | 15049 ft | 196 kts | 162° |
| 2026-05-07 15:30 | 50.53612 | 5.73936 | 14852 ft | 205 kts | 161° |
| 2026-05-07 15:30 | 50.52248 | 5.74743 | 14590 ft | 213 kts | 161° |
| 2026-05-07 15:30 | 50.50850 | 5.75566 | 14305 ft | 217 kts | 161° |
| 2026-05-07 15:31 | 50.49427 | 5.76401 | 14008 ft | 219 kts | 161° |
| 2026-05-07 15:31 | 50.47994 | 5.77241 | 13700 ft | 220 kts | 161° |
| 2026-05-07 15:31 | 50.46562 | 5.78080 | 13391 ft | 219 kts | 161° |
| 2026-05-07 15:31 | 50.45133 | 5.78917 | 13102 ft | 219 kts | 161° |
| 2026-05-07 15:32 | 50.43712 | 5.79747 | 12812 ft | 218 kts | 161° |
| 2026-05-07 15:32 | 50.42295 | 5.80576 | 12527 ft | 217 kts | 161° |
| 2026-05-07 15:32 | 50.40879 | 5.81402 | 12232 ft | 217 kts | 161° |
| 2026-05-07 15:32 | 50.39467 | 5.82226 | 11946 ft | 215 kts | 161° |
| 2026-05-07 15:33 | 50.38064 | 5.83044 | 11672 ft | 215 kts | 161° |
| 2026-05-07 15:33 | 50.36667 | 5.83858 | 11389 ft | 214 kts | 161° |
| 2026-05-07 15:33 | 50.35277 | 5.84668 | 11109 ft | 213 kts | 161° |
| 2026-05-07 15:33 | 50.33891 | 5.85477 | 10829 ft | 212 kts | 161° |
| 2026-05-07 15:34 | 50.32508 | 5.86281 | 10544 ft | 212 kts | 161° |
| 2026-05-07 15:34 | 50.31150 | 5.87071 | 10274 ft | 211 kts | 161° |
| 2026-05-07 15:34 | 50.29759 | 5.87878 | 9991 ft | 210 kts | 161° |
| 2026-05-07 15:34 | 50.28389 | 5.88673 | 9692 ft | 209 kts | 161° |
| 2026-05-07 15:35 | 50.27031 | 5.89461 | 9400 ft | 208 kts | 161° |
| 2026-05-07 15:35 | 50.25693 | 5.90237 | 9129 ft | 207 kts | 161° |
| 2026-05-07 15:35 | 50.24347 | 5.91020 | 8859 ft | 206 kts | 161° |
| 2026-05-07 15:35 | 50.23004 | 5.91797 | 8586 ft | 206 kts | 161° |
| 2026-05-07 15:36 | 50.21666 | 5.92571 | 8313 ft | 205 kts | 161° |
| 2026-05-07 15:36 | 50.20331 | 5.93343 | 8041 ft | 204 kts | 161° |
| 2026-05-07 15:36 | 50.18999 | 5.94115 | 7772 ft | 203 kts | 161° |
| 2026-05-07 15:36 | 50.17675 | 5.94877 | 7509 ft | 202 kts | 161° |
| 2026-05-07 15:37 | 50.16358 | 5.95638 | 7242 ft | 202 kts | 161° |
| 2026-05-07 15:37 | 50.15062 | 5.96388 | 7047 ft | 198 kts | 161° |
| 2026-05-07 15:37 | 50.13804 | 5.97115 | 7043 ft | 189 kts | 161° |
| 2026-05-07 15:37 | 50.12589 | 5.97815 | 7042 ft | 184 kts | 161° |
| 2026-05-07 15:38 | 50.11396 | 5.98503 | 7043 ft | 181 kts | 160° |
| 2026-05-07 15:38 | 50.10217 | 5.99181 | 7044 ft | 180 kts | 160° |
| 2026-05-07 15:38 | 50.09044 | 5.99855 | 7045 ft | 179 kts | 160° |
| 2026-05-07 15:38 | 50.07873 | 6.00529 | 7044 ft | 179 kts | 160° |
| 2026-05-07 15:39 | 50.06703 | 6.01201 | 7047 ft | 179 kts | 160° |
| 2026-05-07 15:39 | 50.05538 | 6.01871 | 7047 ft | 179 kts | 160° |
| 2026-05-07 15:39 | 50.04368 | 6.02543 | 7048 ft | 179 kts | 161° |
| 2026-05-07 15:39 | 50.03197 | 6.03215 | 7040 ft | 180 kts | 161° |
| 2026-05-07 15:40 | 50.02024 | 6.03888 | 7038 ft | 180 kts | 161° |
| 2026-05-07 15:40 | 50.00842 | 6.04568 | 7041 ft | 182 kts | 160° |
| 2026-05-07 15:40 | 49.99653 | 6.05249 | 7040 ft | 182 kts | 160° |
| 2026-05-07 15:40 | 49.98477 | 6.05921 | 7042 ft | 182 kts | 161° |
| 2026-05-07 15:41 | 49.97285 | 6.06601 | 7041 ft | 183 kts | 160° |
| 2026-05-07 15:41 | 49.96092 | 6.07286 | 7037 ft | 183 kts | 160° |
| 2026-05-07 15:41 | 49.94905 | 6.07967 | 7036 ft | 181 kts | 160° |
| 2026-05-07 15:41 | 49.93725 | 6.08643 | 7035 ft | 180 kts | 161° |
| 2026-05-07 15:42 | 49.92549 | 6.09314 | 7035 ft | 179 kts | 161° |
| 2026-05-07 15:42 | 49.91380 | 6.09981 | 7037 ft | 179 kts | 161° |
| 2026-05-07 15:42 | 49.90213 | 6.10648 | 7038 ft | 179 kts | 161° |
| 2026-05-07 15:42 | 49.89044 | 6.11314 | 7038 ft | 179 kts | 161° |
| 2026-05-07 15:43 | 49.87875 | 6.11981 | 7038 ft | 179 kts | 160° |
| 2026-05-07 15:43 | 49.86682 | 6.12526 | 7036 ft | 179 kts | 173° |
| 2026-05-07 15:43 | 49.85456 | 6.12359 | 7039 ft | 178 kts | 198° |
| 2026-05-07 15:43 | 49.84341 | 6.11573 | 7022 ft | 180 kts | 207° |
| 2026-05-07 15:44 | 49.83210 | 6.10680 | 6989 ft | 181 kts | 208° |
| 2026-05-07 15:44 | 49.82091 | 6.09790 | 6986 ft | 180 kts | 207° |
| 2026-05-07 15:44 | 49.80983 | 6.08914 | 6985 ft | 178 kts | 207° |
| 2026-05-07 15:44 | 49.79881 | 6.08048 | 6992 ft | 178 kts | 207° |
| 2026-05-07 15:45 | 49.78765 | 6.07196 | 6994 ft | 180 kts | 207° |
| 2026-05-07 15:45 | 49.77655 | 6.06335 | 6990 ft | 181 kts | 207° |
| 2026-05-07 15:45 | 49.76520 | 6.05481 | 6987 ft | 181 kts | 206° |
| 2026-05-07 15:45 | 49.75397 | 6.04634 | 6984 ft | 179 kts | 207° |
| 2026-05-07 15:46 | 49.73187 | 6.02942 | 6995 ft | 176 kts | 207° |
| 2026-05-07 15:46 | 49.72077 | 6.02094 | 6879 ft | 182 kts | 206° |
| 2026-05-07 15:46 | 49.70911 | 6.01204 | 6624 ft | 191 kts | 206° |
| 2026-05-07 15:47 | 49.69709 | 6.00285 | 6361 ft | 195 kts | 206° |
| 2026-05-07 15:47 | 49.68483 | 5.99351 | 6088 ft | 196 kts | 206° |
| 2026-05-07 15:47 | 49.67255 | 5.98418 | 5829 ft | 197 kts | 206° |
| 2026-05-07 15:47 | 49.66028 | 5.97485 | 5570 ft | 196 kts | 206° |
| 2026-05-07 15:48 | 49.64800 | 5.96552 | 5209 ft | 197 kts | 206° |
| 2026-05-07 15:48 | 49.63587 | 5.95623 | 4833 ft | 196 kts | 208° |
| 2026-05-07 15:48 | 49.62587 | 5.94222 | 4436 ft | 196 kts | 236° |
| 2026-05-07 15:48 | 49.61903 | 5.92418 | 4145 ft | 192 kts | 242° |
| 2026-05-07 15:49 | 49.61264 | 5.90627 | 3887 ft | 190 kts | 235° |
| 2026-05-07 15:49 | 49.60301 | 5.89503 | 3621 ft | 161 kts | 198° |
| 2026-05-07 15:49 | 49.59284 | 5.89579 | 3373 ft | 144 kts | 158° |
| 2026-05-07 15:49 | 49.58366 | 5.90270 | 3121 ft | 149 kts | 152° |
| 2026-05-07 15:50 | 49.57453 | 5.91010 | 2990 ft | 145 kts | 152° |
| 2026-05-07 15:50 | 49.56626 | 5.91852 | 2981 ft | 142 kts | 128° |
| 2026-05-07 15:50 | 49.56312 | 5.93247 | 2992 ft | 138 kts | 95° |
| 2026-05-07 15:50 | 49.56234 | 5.94729 | 2996 ft | 139 kts | 93° |
| 2026-05-07 15:51 | 49.55932 | 5.96138 | 2992 ft | 142 kts | 126° |
| 2026-05-07 15:51 | 49.55353 | 5.97373 | 2988 ft | 143 kts | 115° |
| 2026-05-07 15:51 | 49.55153 | 5.98865 | 2997 ft | 143 kts | 94° |
| 2026-05-07 15:51 | 49.55119 | 6.00395 | 2987 ft | 143 kts | 81° |
| 2026-05-07 15:52 | 49.55482 | 6.01783 | 2993 ft | 141 kts | 62° |
| 2026-05-07 15:52 | 49.55942 | 6.03111 | 2991 ft | 140 kts | 60° |
| 2026-05-07 15:52 | 49.56411 | 6.04420 | 2990 ft | 139 kts | 60° |
| 2026-05-07 15:52 | 49.56881 | 6.05684 | 2979 ft | 128 kts | 59° |
| 2026-05-07 15:53 | 49.57296 | 6.06796 | 2982 ft | 113 kts | 59° |
| 2026-05-07 15:53 | 49.57687 | 6.07845 | 2853 ft | 111 kts | 59° |
| 2026-05-07 15:53 | 49.58052 | 6.08827 | 2729 ft | 96 kts | 60° |
| 2026-05-07 15:53 | 49.58361 | 6.09659 | 2587 ft | 87 kts | 59° |
| 2026-05-07 15:54 | 49.58664 | 6.10470 | 2482 ft | 88 kts | 59° |
| 2026-05-07 15:54 | 49.58967 | 6.11286 | 2362 ft | 89 kts | 59° |
| 2026-05-07 15:54 | 49.59293 | 6.12089 | 2242 ft | 88 kts | 56° |
| 2026-05-07 15:54 | 49.59596 | 6.12909 | 2118 ft | 87 kts | 62° |
| 2026-05-07 15:55 | 49.59880 | 6.13710 | 2002 ft | 85 kts | 57° |
| 2026-05-07 15:55 | 49.60173 | 6.14480 | 1893 ft | 84 kts | 57° |
| 2026-05-07 15:55 | 49.60462 | 6.15268 | 1762 ft | 85 kts | 58° |
| 2026-05-07 15:55 | 49.60755 | 6.16071 | 1601 ft | 86 kts | 59° |
| 2026-05-07 15:56 | 49.61047 | 6.16855 | 1466 ft | 82 kts | 59° |
| 2026-05-07 15:56 | 49.61325 | 6.17604 | 1371 ft | 80 kts | 56° |
| 2026-05-07 15:56 | 49.61608 | 6.18364 | 1249 ft | 84 kts | 57° |
| 2026-05-07 15:56 | 49.61895 | 6.19135 | 1166 ft | 75 kts | 58° |
| 2026-05-07 15:57 | 49.62060 | 6.19577 | 1180 ft | 18 kts | 56° |
| 2026-05-07 15:57 | 49.62135 | 6.19594 | 1184 ft | 10 kts | 335° |
| 2026-05-07 15:57 | 49.62174 | 6.19562 | 1182 ft | 0 kts | 330° |
| 2026-05-07 15:59 | 49.62195 | 6.19544 | 1178 ft | 12 kts | 331° |
| 2026-05-07 16:00 | 49.62266 | 6.19481 | 1178 ft | 10 kts | 330° |
| 2026-05-07 16:00 | 49.62316 | 6.19434 | 1181 ft | 8 kts | 331° |
| 2026-05-07 16:00 | 49.62356 | 6.19397 | 1181 ft | 2 kts | 0° |
| 2026-05-07 16:00 | 49.62368 | 6.19424 | 1181 ft | 4 kts | 58° |
| 2026-05-07 16:01 | 49.62384 | 6.19467 | 1181 ft | 3 kts | 58° |
| 2026-05-07 16:01 | 49.62384 | 6.19468 | 1181 ft | 0 kts | 58° |